sensor_id;sensor_type;location;lat;lon;timestamp;pressure;altitude;pressure_sealevel;temperature;humidity
57068;BME280;43391;47.448;18.904;2024-01-30T00:01:47;101993.84;;;-4.32;100.00
57068;BME280;43391;47.448;18.904;2024-01-30T00:04:12;101993.13;;;-4.30;100.00
57068;BME280;43391;47.448;18.904;2024-01-30T00:06:37;101990.59;;;-4.30;100.00
57068;BME280;43391;47.448;18.904;2024-01-30T00:09:03;101979.34;;;-4.35;100.00
57068;BME280;43391;47.448;18.904;2024-01-30T00:11:28;101990.38;;;-4.34;100.00
57068;BME280;43391;47.448;18.904;2024-01-30T00:13:54;101989.44;;;-4.36;100.00
57068;BME280;43391;47.448;18.904;2024-01-30T00:16:22;101997.59;;;-4.42;100.00
57068;BME280;43391;47.448;18.904;2024-01-30T00:18:47;101990.63;;;-4.46;100.00
57068;BME280;43391;47.448;18.904;2024-01-30T00:21:13;101990.16;;;-4.56;100.00
57068;BME280;43391;47.448;18.904;2024-01-30T00:23:38;102000.09;;;-4.60;100.00
57068;BME280;43391;47.448;18.904;2024-01-30T00:26:03;102000.97;;;-4.60;100.00
57068;BME280;43391;47.448;18.904;2024-01-30T00:28:30;102004.94;;;-4.65;100.00
57068;BME280;43391;47.448;18.904;2024-01-30T00:30:55;102002.84;;;-4.56;100.00
57068;BME280;43391;47.448;18.904;2024-01-30T00:33:20;102000.31;;;-4.56;100.00
57068;BME280;43391;47.448;18.904;2024-01-30T00:35:45;102004.75;;;-4.51;100.00
57068;BME280;43391;47.448;18.904;2024-01-30T00:38:11;102013.06;;;-4.54;100.00
57068;BME280;43391;47.448;18.904;2024-01-30T00:40:36;102011.88;;;-4.44;100.00
57068;BME280;43391;47.448;18.904;2024-01-30T00:43:01;102015.91;;;-4.48;100.00
57068;BME280;43391;47.448;18.904;2024-01-30T00:45:27;102014.41;;;-4.44;100.00
57068;BME280;43391;47.448;18.904;2024-01-30T00:47:52;102011.72;;;-4.47;100.00
57068;BME280;43391;47.448;18.904;2024-01-30T00:50:17;102013.31;;;-4.49;100.00
57068;BME280;43391;47.448;18.904;2024-01-30T00:52:42;102016.88;;;-4.46;100.00
57068;BME280;43391;47.448;18.904;2024-01-30T00:55:10;102012.50;;;-4.48;100.00
57068;BME280;43391;47.448;18.904;2024-01-30T00:57:35;102007.19;;;-4.53;100.00
57068;BME280;43391;47.448;18.904;2024-01-30T01:00:00;102008.69;;;-4.57;100.00
57068;BME280;43391;47.448;18.904;2024-01-30T01:02:25;102002.06;;;-4.55;100.00
57068;BME280;43391;47.448;18.904;2024-01-30T01:04:50;102002.06;;;-4.55;100.00
57068;BME280;43391;47.448;18.904;2024-01-30T01:07:16;101995.31;;;-4.54;100.00
57068;BME280;43391;47.448;18.904;2024-01-30T01:09:41;102006.13;;;-4.58;100.00
57068;BME280;43391;47.448;18.904;2024-01-30T01:12:06;101998.03;;;-4.68;100.00
57068;BME280;43391;47.448;18.904;2024-01-30T01:14:31;102006.34;;;-4.70;100.00
57068;BME280;43391;47.448;18.904;2024-01-30T01:16:56;102002.09;;;-4.71;100.00
57068;BME280;43391;47.448;18.904;2024-01-30T01:19:22;101996.06;;;-4.73;100.00
57068;BME280;43391;47.448;18.904;2024-01-30T01:21:47;101993.50;;;-4.73;100.00
57068;BME280;43391;47.448;18.904;2024-01-30T01:24:12;101999.38;;;-4.74;100.00
57068;BME280;43391;47.448;18.904;2024-01-30T01:26:38;101989.47;;;-4.70;100.00
57068;BME280;43391;47.448;18.904;2024-01-30T01:29:03;101989.16;;;-4.76;100.00
57068;BME280;43391;47.448;18.904;2024-01-30T01:31:34;101990.50;;;-4.83;100.00
57068;BME280;43391;47.448;18.904;2024-01-30T01:34:00;101986.72;;;-4.91;100.00
57068;BME280;43391;47.448;18.904;2024-01-30T01:36:25;101990.81;;;-4.93;100.00
57068;BME280;43391;47.448;18.904;2024-01-30T01:38:50;101977.38;;;-4.92;100.00
57068;BME280;43391;47.448;18.904;2024-01-30T01:41:15;101986.63;;;-4.93;100.00
57068;BME280;43391;47.448;18.904;2024-01-30T01:43:41;101981.56;;;-4.93;100.00
57068;BME280;43391;47.448;18.904;2024-01-30T01:46:06;101981.75;;;-4.89;100.00
57068;BME280;43391;47.448;18.904;2024-01-30T01:48:32;101983.78;;;-4.82;100.00
57068;BME280;43391;47.448;18.904;2024-01-30T01:50:57;101985.38;;;-4.84;100.00
57068;BME280;43391;47.448;18.904;2024-01-30T01:53:23;101974.28;;;-4.86;100.00
57068;BME280;43391;47.448;18.904;2024-01-30T01:55:48;101971.75;;;-4.86;100.00
57068;BME280;43391;47.448;18.904;2024-01-30T01:58:14;101977.53;;;-4.89;100.00
57068;BME280;43391;47.448;18.904;2024-01-30T02:00:39;101973.97;;;-4.93;100.00
57068;BME280;43391;47.448;18.904;2024-01-30T02:03:06;101974.91;;;-4.90;100.00
57068;BME280;43391;47.448;18.904;2024-01-30T02:05:32;101974.13;;;-4.89;100.00
57068;BME280;43391;47.448;18.904;2024-01-30T02:07:58;101975.69;;;-4.91;100.00
57068;BME280;43391;47.448;18.904;2024-01-30T02:10:23;101977.31;;;-4.94;100.00
57068;BME280;43391;47.448;18.904;2024-01-30T02:12:48;101972.06;;;-4.97;100.00
57068;BME280;43391;47.448;18.904;2024-01-30T02:15:14;101978.00;;;-4.96;100.00
57068;BME280;43391;47.448;18.904;2024-01-30T02:17:39;101972.16;;;-4.95;100.00
57068;BME280;43391;47.448;18.904;2024-01-30T02:20:04;101976.19;;;-4.99;100.00
57068;BME280;43391;47.448;18.904;2024-01-30T02:22:30;101964.38;;;-4.98;100.00
57068;BME280;43391;47.448;18.904;2024-01-30T02:24:57;101971.03;;;-5.00;100.00
57068;BME280;43391;47.448;18.904;2024-01-30T02:27:22;101969.13;;;-5.04;100.00
57068;BME280;43391;47.448;18.904;2024-01-30T02:29:47;101970.16;;;-5.01;100.00
57068;BME280;43391;47.448;18.904;2024-01-30T02:32:13;101961.69;;;-5.01;100.00
57068;BME280;43391;47.448;18.904;2024-01-30T02:34:38;101972.63;;;-5.02;100.00
57068;BME280;43391;47.448;18.904;2024-01-30T02:37:03;101962.25;;;-5.07;100.00
57068;BME280;43391;47.448;18.904;2024-01-30T02:39:28;101974.81;;;-5.09;100.00
57068;BME280;43391;47.448;18.904;2024-01-30T02:41:54;101974.50;;;-5.15;100.00
57068;BME280;43391;47.448;18.904;2024-01-30T02:44:19;101973.31;;;-5.22;100.00
57068;BME280;43391;47.448;18.904;2024-01-30T02:46:45;101974.19;;;-5.21;100.00
57068;BME280;43391;47.448;18.904;2024-01-30T02:49:10;101973.47;;;-5.18;100.00
57068;BME280;43391;47.448;18.904;2024-01-30T02:51:36;101963.97;;;-5.23;100.00
57068;BME280;43391;47.448;18.904;2024-01-30T02:54:01;101969.84;;;-5.24;100.00
57068;BME280;43391;47.448;18.904;2024-01-30T02:56:26;101968.81;;;-5.27;100.00
57068;BME280;43391;47.448;18.904;2024-01-30T02:58:51;101965.88;;;-5.35;100.00
57068;BME280;43391;47.448;18.904;2024-01-30T03:01:16;101966.66;;;-5.36;100.00
57068;BME280;43391;47.448;18.904;2024-01-30T03:03:42;101967.38;;;-5.39;100.00
57068;BME280;43391;47.448;18.904;2024-01-30T03:06:08;101970.94;;;-5.35;100.00
57068;BME280;43391;47.448;18.904;2024-01-30T03:08:34;101968.00;;;-5.43;100.00
57068;BME280;43391;47.448;18.904;2024-01-30T03:11:00;101961.00;;;-5.47;100.00
57068;BME280;43391;47.448;18.904;2024-01-30T03:13:25;101967.75;;;-5.48;100.00
57068;BME280;43391;47.448;18.904;2024-01-30T03:15:50;101970.13;;;-5.51;100.00
57068;BME280;43391;47.448;18.904;2024-01-30T03:18:15;101972.41;;;-5.55;100.00
57068;BME280;43391;47.448;18.904;2024-01-30T03:20:41;101978.59;;;-5.50;100.00
57068;BME280;43391;47.448;18.904;2024-01-30T03:23:06;101981.69;;;-5.39;100.00
57068;BME280;43391;47.448;18.904;2024-01-30T03:25:31;101976.19;;;-5.47;100.00
57068;BME280;43391;47.448;18.904;2024-01-30T03:27:56;101978.72;;;-5.47;100.00
57068;BME280;43391;47.448;18.904;2024-01-30T03:30:22;101976.13;;;-5.49;100.00
57068;BME280;43391;47.448;18.904;2024-01-30T03:32:47;101974.56;;;-5.47;100.00
57068;BME280;43391;47.448;18.904;2024-01-30T03:35:12;101978.50;;;-5.52;100.00
57068;BME280;43391;47.448;18.904;2024-01-30T03:37:37;101973.25;;;-5.55;100.00
57068;BME280;43391;47.448;18.904;2024-01-30T03:40:03;101967.34;;;-5.55;100.00
57068;BME280;43391;47.448;18.904;2024-01-30T03:42:28;101964.97;;;-5.52;100.00
57068;BME280;43391;47.448;18.904;2024-01-30T03:44:53;101965.56;;;-5.56;100.00
57068;BME280;43391;47.448;18.904;2024-01-30T03:47:20;101958.69;;;-5.59;100.00
57068;BME280;43391;47.448;18.904;2024-01-30T03:49:45;101954.69;;;-5.55;100.00
57068;BME280;43391;47.448;18.904;2024-01-30T03:52:10;101946.59;;;-5.65;100.00
57068;BME280;43391;47.448;18.904;2024-01-30T03:54:35;101951.75;;;-5.63;100.00
57068;BME280;43391;47.448;18.904;2024-01-30T03:57:01;101945.88;;;-5.62;100.00
57068;BME280;43391;47.448;18.904;2024-01-30T03:59:26;101953.31;;;-5.65;100.00
57068;BME280;43391;47.448;18.904;2024-01-30T04:01:51;101956.81;;;-5.63;100.00
57068;BME280;43391;47.448;18.904;2024-01-30T04:04:17;101957.84;;;-5.60;100.00
57068;BME280;43391;47.448;18.904;2024-01-30T04:06:43;101949.53;;;-5.57;100.00
57068;BME280;43391;47.448;18.904;2024-01-30T04:09:08;101955.22;;;-5.61;100.00
57068;BME280;43391;47.448;18.904;2024-01-30T04:11:33;101945.09;;;-5.61;100.00
57068;BME280;43391;47.448;18.904;2024-01-30T04:13:59;101948.09;;;-5.68;100.00
57068;BME280;43391;47.448;18.904;2024-01-30T04:16:24;101948.81;;;-5.71;100.00
57068;BME280;43391;47.448;18.904;2024-01-30T04:18:49;101944.59;;;-5.70;100.00
57068;BME280;43391;47.448;18.904;2024-01-30T04:21:14;101943.78;;;-5.69;100.00
57068;BME280;43391;47.448;18.904;2024-01-30T04:23:40;101934.72;;;-5.66;100.00
57068;BME280;43391;47.448;18.904;2024-01-30T04:26:05;101939.63;;;-5.69;100.00
57068;BME280;43391;47.448;18.904;2024-01-30T04:28:31;101946.78;;;-5.77;100.00
57068;BME280;43391;47.448;18.904;2024-01-30T04:30:56;101940.94;;;-5.76;100.00
57068;BME280;43391;47.448;18.904;2024-01-30T04:33:21;101940.16;;;-5.75;100.00
57068;BME280;43391;47.448;18.904;2024-01-30T04:35:46;101951.66;;;-5.80;100.00
57068;BME280;43391;47.448;18.904;2024-01-30T04:38:11;101947.31;;;-5.82;100.00
57068;BME280;43391;47.448;18.904;2024-01-30T04:40:37;101954.28;;;-5.78;100.00
57068;BME280;43391;47.448;18.904;2024-01-30T04:43:02;101947.69;;;-5.76;100.00
57068;BME280;43391;47.448;18.904;2024-01-30T04:45:27;101947.69;;;-5.76;100.00
57068;BME280;43391;47.448;18.904;2024-01-30T04:47:52;101947.81;;;-5.73;100.00
57068;BME280;43391;47.448;18.904;2024-01-30T04:50:17;101957.81;;;-5.76;100.00
57068;BME280;43391;47.448;18.904;2024-01-30T04:52:44;101949.22;;;-5.78;100.00
57068;BME280;43391;47.448;18.904;2024-01-30T04:55:09;101958.50;;;-5.79;100.00
57068;BME280;43391;47.448;18.904;2024-01-30T04:57:34;101957.19;;;-5.87;100.00
57068;BME280;43391;47.448;18.904;2024-01-30T04:59:59;101956.16;;;-5.91;100.00
57068;BME280;43391;47.448;18.904;2024-01-30T05:02:24;101955.13;;;-5.94;100.00
57068;BME280;43391;47.448;18.904;2024-01-30T05:04:50;101959.31;;;-5.95;100.00
57068;BME280;43391;47.448;18.904;2024-01-30T05:07:15;101960.78;;;-5.98;100.00
57068;BME280;43391;47.448;18.904;2024-01-30T05:09:40;101964.03;;;-6.01;100.00
57068;BME280;43391;47.448;18.904;2024-01-30T05:12:06;101966.50;;;-6.03;100.00
57068;BME280;43391;47.448;18.904;2024-01-30T05:14:31;101969.88;;;-6.02;100.00
57068;BME280;43391;47.448;18.904;2024-01-30T05:16:56;101974.88;;;-6.04;100.00
57068;BME280;43391;47.448;18.904;2024-01-30T05:19:22;101968.84;;;-6.06;100.00
57068;BME280;43391;47.448;18.904;2024-01-30T05:21:48;101969.88;;;-6.02;100.00
57068;BME280;43391;47.448;18.904;2024-01-30T05:24:13;101973.25;;;-6.02;100.00
57068;BME280;43391;47.448;18.904;2024-01-30T05:26:38;101982.53;;;-6.02;100.00
57068;BME280;43391;47.448;18.904;2024-01-30T05:29:04;101981.66;;;-6.03;100.00
57068;BME280;43391;47.448;18.904;2024-01-30T05:31:29;101980.84;;;-6.02;100.00
57068;BME280;43391;47.448;18.904;2024-01-30T05:33:55;101978.59;;;-5.97;100.00
57068;BME280;43391;47.448;18.904;2024-01-30T05:36:20;101981.97;;;-5.96;100.00
57068;BME280;43391;47.448;18.904;2024-01-30T05:38:46;101980.84;;;-6.02;100.00
57068;BME280;43391;47.448;18.904;2024-01-30T05:41:11;101986.72;;;-6.03;100.00
57068;BME280;43391;47.448;18.904;2024-01-30T05:43:37;101973.19;;;-6.03;100.00
57068;BME280;43391;47.448;18.904;2024-01-30T05:46:02;101988.44;;;-6.02;100.00
57068;BME280;43391;47.448;18.904;2024-01-30T05:48:27;101986.72;;;-6.03;100.00
57068;BME280;43391;47.448;18.904;2024-01-30T05:50:52;101988.22;;;-6.06;100.00
57068;BME280;43391;47.448;18.904;2024-01-30T05:53:17;101984.25;;;-6.01;100.00
57068;BME280;43391;47.448;18.904;2024-01-30T05:55:43;101985.31;;;-5.97;100.00
57068;BME280;43391;47.448;18.904;2024-01-30T05:58:08;101977.81;;;-5.96;100.00
57068;BME280;43391;47.448;18.904;2024-01-30T06:00:33;101985.22;;;-5.99;100.00
57068;BME280;43391;47.448;18.904;2024-01-30T06:02:58;101985.00;;;-6.04;100.00
57068;BME280;43391;47.448;18.904;2024-01-30T06:05:23;101980.06;;;-6.01;100.00
57068;BME280;43391;47.448;18.904;2024-01-30T06:07:49;101980.00;;;-6.02;100.00
57068;BME280;43391;47.448;18.904;2024-01-30T06:10:14;101978.72;;;-6.10;100.00
57068;BME280;43391;47.448;18.904;2024-01-30T06:12:39;101985.25;;;-6.14;100.00
57068;BME280;43391;47.448;18.904;2024-01-30T06:15:04;101978.72;;;-6.10;100.00
57068;BME280;43391;47.448;18.904;2024-01-30T06:17:30;101985.69;;;-6.06;100.00
57068;BME280;43391;47.448;18.904;2024-01-30T06:19:55;101991.44;;;-6.09;100.00
57068;BME280;43391;47.448;18.904;2024-01-30T06:22:20;101987.44;;;-6.05;100.00
57068;BME280;43391;47.448;18.904;2024-01-30T06:24:45;101993.19;;;-6.08;100.00
57068;BME280;43391;47.448;18.904;2024-01-30T06:27:13;101989.31;;;-6.01;100.00
57068;BME280;43391;47.448;18.904;2024-01-30T06:29:38;101986.50;;;-6.07;100.00
57068;BME280;43391;47.448;18.904;2024-01-30T06:32:03;101994.22;;;-6.04;100.00
57068;BME280;43391;47.448;18.904;2024-01-30T06:34:29;101990.97;;;-6.02;100.00
57068;BME280;43391;47.448;18.904;2024-01-30T06:36:54;101992.69;;;-6.01;100.00
57068;BME280;43391;47.448;18.904;2024-01-30T06:42:03;102000.13;;;-5.89;100.00
57068;BME280;43391;47.448;18.904;2024-01-30T06:44:28;101996.59;;;-5.76;100.00
57068;BME280;43391;47.448;18.904;2024-01-30T06:46:53;102003.69;;;-5.70;100.00
57068;BME280;43391;47.448;18.904;2024-01-30T06:49:19;102000.44;;;-5.67;100.00
57068;BME280;43391;47.448;18.904;2024-01-30T06:51:44;102003.78;;;-5.68;100.00
57068;BME280;43391;47.448;18.904;2024-01-30T06:54:09;102001.38;;;-5.65;100.00
57068;BME280;43391;47.448;18.904;2024-01-30T06:56:34;102000.69;;;-5.63;100.00
57068;BME280;43391;47.448;18.904;2024-01-30T06:59:00;101998.16;;;-5.63;100.00
57068;BME280;43391;47.448;18.904;2024-01-30T07:01:29;102005.94;;;-5.60;100.00
57068;BME280;43391;47.448;18.904;2024-01-30T07:03:54;102001.09;;;-5.55;100.00
57068;BME280;43391;47.448;18.904;2024-01-30T07:06:19;102007.38;;;-5.48;100.00
57068;BME280;43391;47.448;18.904;2024-01-30T07:08:45;102007.78;;;-5.40;100.00
57068;BME280;43391;47.448;18.904;2024-01-30T07:11:10;102011.44;;;-5.35;100.00
57068;BME280;43391;47.448;18.904;2024-01-30T07:13:37;102010.97;;;-5.28;100.00
57068;BME280;43391;47.448;18.904;2024-01-30T07:16:02;102009.25;;;-5.29;100.00
57068;BME280;43391;47.448;18.904;2024-01-30T07:18:28;102011.28;;;-5.22;100.00
57068;BME280;43391;47.448;18.904;2024-01-30T07:20:53;102009.88;;;-5.16;100.00
57068;BME280;43391;47.448;18.904;2024-01-30T07:23:18;102011.97;;;-5.09;100.00
57068;BME280;43391;47.448;18.904;2024-01-30T07:25:44;102006.50;;;-5.00;100.00
57068;BME280;43391;47.448;18.904;2024-01-30T07:28:09;102009.34;;;-4.94;100.00
57068;BME280;43391;47.448;18.904;2024-01-30T07:30:35;102013.88;;;-4.88;100.00
57068;BME280;43391;47.448;18.904;2024-01-30T07:33:00;102017.53;;;-4.83;100.00
57068;BME280;43391;47.448;18.904;2024-01-30T07:35:26;102008.59;;;-4.76;100.00
57068;BME280;43391;47.448;18.904;2024-01-30T07:37:51;102002.94;;;-4.71;100.00
57068;BME280;43391;47.448;18.904;2024-01-30T07:40:16;101998.25;;;-4.63;100.00
57068;BME280;43391;47.448;18.904;2024-01-30T07:42:42;101996.28;;;-4.52;100.00
57068;BME280;43391;47.448;18.904;2024-01-30T07:45:07;101993.63;;;-4.37;100.00
57068;BME280;43391;47.448;18.904;2024-01-30T07:47:32;101986.59;;;-4.24;100.00
57068;BME280;43391;47.448;18.904;2024-01-30T07:49:58;101992.50;;;-4.07;100.00
57068;BME280;43391;47.448;18.904;2024-01-30T07:52:23;101995.06;;;-3.71;100.00
57068;BME280;43391;47.448;18.904;2024-01-30T07:54:48;101997.06;;;-3.45;100.00
57068;BME280;43391;47.448;18.904;2024-01-30T07:57:14;101999.66;;;-3.26;100.00
57068;BME280;43391;47.448;18.904;2024-01-30T07:59:39;101993.44;;;-3.13;100.00
57068;BME280;43391;47.448;18.904;2024-01-30T08:02:04;101996.53;;;-3.00;100.00
57068;BME280;43391;47.448;18.904;2024-01-30T08:04:29;102003.09;;;-2.86;100.00
57068;BME280;43391;47.448;18.904;2024-01-30T08:06:54;101997.53;;;-2.77;100.00
57068;BME280;43391;47.448;18.904;2024-01-30T08:09:20;101999.56;;;-2.70;100.00
57068;BME280;43391;47.448;18.904;2024-01-30T08:11:45;102004.63;;;-2.70;100.00
57068;BME280;43391;47.448;18.904;2024-01-30T08:14:10;101996.44;;;-2.62;100.00
57068;BME280;43391;47.448;18.904;2024-01-30T08:16:35;102010.78;;;-2.45;100.00
57068;BME280;43391;47.448;18.904;2024-01-30T08:19:01;102005.50;;;-2.28;100.00
57068;BME280;43391;47.448;18.904;2024-01-30T08:21:26;102006.81;;;-2.17;100.00
57068;BME280;43391;47.448;18.904;2024-01-30T08:23:51;101997.81;;;-2.08;100.00
57068;BME280;43391;47.448;18.904;2024-01-30T08:26:17;102006.56;;;-2.02;100.00
57068;BME280;43391;47.448;18.904;2024-01-30T08:28:42;102009.72;;;-1.86;100.00
57068;BME280;43391;47.448;18.904;2024-01-30T08:31:09;102010.22;;;-1.74;100.00
57068;BME280;43391;47.448;18.904;2024-01-30T08:33:35;102020.13;;;-1.58;100.00
57068;BME280;43391;47.448;18.904;2024-01-30T08:36:00;102018.78;;;-1.49;100.00
57068;BME280;43391;47.448;18.904;2024-01-30T08:38:25;102020.94;;;-1.37;100.00
57068;BME280;43391;47.448;18.904;2024-01-30T08:40:50;102030.16;;;-1.17;100.00
57068;BME280;43391;47.448;18.904;2024-01-30T08:43:16;102026.59;;;-0.98;100.00
57068;BME280;43391;47.448;18.904;2024-01-30T08:45:41;102034.66;;;-0.87;100.00
57068;BME280;43391;47.448;18.904;2024-01-30T08:48:07;102030.91;;;-0.73;100.00
57068;BME280;43391;47.448;18.904;2024-01-30T08:50:32;102025.31;;;-0.62;100.00
57068;BME280;43391;47.448;18.904;2024-01-30T08:52:58;102028.91;;;-0.57;100.00
57068;BME280;43391;47.448;18.904;2024-01-30T08:55:23;102019.72;;;-0.52;100.00
57068;BME280;43391;47.448;18.904;2024-01-30T08:57:48;102011.56;;;-0.42;100.00
57068;BME280;43391;47.448;18.904;2024-01-30T09:00:14;102021.03;;;-0.37;100.00
57068;BME280;43391;47.448;18.904;2024-01-30T09:02:39;102015.28;;;-0.32;100.00
57068;BME280;43391;47.448;18.904;2024-01-30T09:05:04;102016.44;;;-0.22;100.00
57068;BME280;43391;47.448;18.904;2024-01-30T09:07:30;102016.88;;;-0.09;100.00
57068;BME280;43391;47.448;18.904;2024-01-30T09:09:55;102009.41;;;-0.03;100.00
57068;BME280;43391;47.448;18.904;2024-01-30T09:12:20;102012.25;;;0.06;100.00
57068;BME280;43391;47.448;18.904;2024-01-30T09:14:45;102009.97;;;0.16;100.00
57068;BME280;43391;47.448;18.904;2024-01-30T09:17:11;102008.72;;;0.30;100.00
57068;BME280;43391;47.448;18.904;2024-01-30T09:19:36;102014.94;;;0.38;100.00
57068;BME280;43391;47.448;18.904;2024-01-30T09:22:02;102013.63;;;0.51;100.00
57068;BME280;43391;47.448;18.904;2024-01-30T09:24:27;102009.03;;;0.69;100.00
57068;BME280;43391;47.448;18.904;2024-01-30T09:26:53;102010.41;;;0.88;100.00
57068;BME280;43391;47.448;18.904;2024-01-30T09:29:18;102011.66;;;1.02;100.00
57068;BME280;43391;47.448;18.904;2024-01-30T09:31:44;102012.84;;;1.15;100.00
57068;BME280;43391;47.448;18.904;2024-01-30T09:34:09;102010.84;;;1.36;100.00
57068;BME280;43391;47.448;18.904;2024-01-30T09:36:35;102007.91;;;1.54;100.00
57068;BME280;43391;47.448;18.904;2024-01-30T09:39:00;102015.25;;;1.75;100.00
57068;BME280;43391;47.448;18.904;2024-01-30T09:41:25;102006.94;;;1.84;100.00
57068;BME280;43391;47.448;18.904;2024-01-30T09:43:52;102010.41;;;1.86;100.00
57068;BME280;43391;47.448;18.904;2024-01-30T09:46:19;102007.44;;;2.04;100.00
57068;BME280;43391;47.448;18.904;2024-01-30T09:48:46;102011.38;;;2.27;100.00
57068;BME280;43391;47.448;18.904;2024-01-30T09:51:13;102008.31;;;2.43;100.00
57068;BME280;43391;47.448;18.904;2024-01-30T09:53:39;102007.69;;;2.55;100.00
57068;BME280;43391;47.448;18.904;2024-01-30T09:56:05;102012.91;;;2.58;100.00
57068;BME280;43391;47.448;18.904;2024-01-30T09:58:30;102013.66;;;2.54;100.00
57068;BME280;43391;47.448;18.904;2024-01-30T10:00:55;102012.53;;;2.41;100.00
57068;BME280;43391;47.448;18.904;2024-01-30T10:03:20;102015.78;;;2.34;100.00
57068;BME280;43391;47.448;18.904;2024-01-30T10:05:50;102005.41;;;2.29;100.00
57068;BME280;43391;47.448;18.904;2024-01-30T10:08:16;102013.09;;;2.29;100.00
57068;BME280;43391;47.448;18.904;2024-01-30T10:10:45;102008.06;;;2.32;100.00
57068;BME280;43391;47.448;18.904;2024-01-30T10:13:10;102010.75;;;2.38;100.00
57068;BME280;43391;47.448;18.904;2024-01-30T10:15:36;102007.31;;;2.36;100.00
57068;BME280;43391;47.448;18.904;2024-01-30T10:18:03;102010.00;;;2.43;100.00
57068;BME280;43391;47.448;18.904;2024-01-30T10:20:31;102010.19;;;2.52;100.00
57068;BME280;43391;47.448;18.904;2024-01-30T10:22:57;102006.84;;;2.55;100.00
57068;BME280;43391;47.448;18.904;2024-01-30T10:25:22;101997.59;;;2.61;100.00
57068;BME280;43391;47.448;18.904;2024-01-30T10:27:51;102003.63;;;2.65;100.00
57068;BME280;43391;47.448;18.904;2024-01-30T10:30:17;102003.81;;;2.73;100.00
57068;BME280;43391;47.448;18.904;2024-01-30T10:32:42;101996.22;;;2.79;100.00
57068;BME280;43391;47.448;18.904;2024-01-30T10:35:07;102006.03;;;2.99;100.00
57068;BME280;43391;47.448;18.904;2024-01-30T10:37:33;101993.72;;;3.27;100.00
57068;BME280;43391;47.448;18.904;2024-01-30T10:40:02;101991.06;;;3.24;100.00
57068;BME280;43391;47.448;18.904;2024-01-30T10:42:28;101995.84;;;3.03;100.00
57068;BME280;43391;47.448;18.904;2024-01-30T10:44:56;101992.31;;;2.98;100.00
57068;BME280;43391;47.448;18.904;2024-01-30T10:47:28;101987.19;;;2.98;100.00
57068;BME280;43391;47.448;18.904;2024-01-30T10:49:54;101980.31;;;2.96;100.00
57068;BME280;43391;47.448;18.904;2024-01-30T10:52:19;101977.03;;;3.03;100.00
57068;BME280;43391;47.448;18.904;2024-01-30T10:54:45;101970.03;;;3.43;100.00
57068;BME280;43391;47.448;18.904;2024-01-30T10:57:11;101970.00;;;3.94;100.00
57068;BME280;43391;47.448;18.904;2024-01-30T10:59:37;101963.16;;;3.95;100.00
57068;BME280;43391;47.448;18.904;2024-01-30T11:02:03;101966.34;;;3.80;100.00
57068;BME280;43391;47.448;18.904;2024-01-30T11:04:35;101961.50;;;3.44;100.00
57068;BME280;43391;47.448;18.904;2024-01-30T11:07:01;101957.94;;;3.36;100.00
57068;BME280;43391;47.448;18.904;2024-01-30T11:09:28;101958.88;;;3.41;100.00
57068;BME280;43391;47.448;18.904;2024-01-30T11:11:57;101952.91;;;3.42;100.00
57068;BME280;43391;47.448;18.904;2024-01-30T11:14:27;101945.13;;;3.38;100.00
57068;BME280;43391;47.448;18.904;2024-01-30T11:16:52;101948.50;;;3.34;100.00
57068;BME280;43391;47.448;18.904;2024-01-30T11:19:24;101949.31;;;3.32;100.00
57068;BME280;43391;47.448;18.904;2024-01-30T11:21:50;101931.16;;;3.76;100.00
57068;BME280;43391;47.448;18.904;2024-01-30T11:24:19;101939.41;;;4.13;100.00
57068;BME280;43391;47.448;18.904;2024-01-30T11:26:44;101938.94;;;4.41;100.00
57068;BME280;43391;47.448;18.904;2024-01-30T11:29:09;101943.06;;;4.29;100.00
57068;BME280;43391;47.448;18.904;2024-01-30T11:31:34;101935.66;;;3.89;100.00
57068;BME280;43391;47.448;18.904;2024-01-30T11:34:00;101935.66;;;3.89;100.00
57068;BME280;43391;47.448;18.904;2024-01-30T11:36:25;101935.06;;;4.07;100.00
57068;BME280;43391;47.448;18.904;2024-01-30T11:38:51;101938.00;;;4.35;100.00
57068;BME280;43391;47.448;18.904;2024-01-30T11:41:17;101932.47;;;4.75;100.00
57068;BME280;43391;47.448;18.904;2024-01-30T11:43:42;101932.00;;;5.11;100.00
57068;BME280;43391;47.448;18.904;2024-01-30T11:46:08;101933.78;;;5.18;100.00
57068;BME280;43391;47.448;18.904;2024-01-30T11:48:34;101932.03;;;5.15;100.00
57068;BME280;43391;47.448;18.904;2024-01-30T11:51:00;101921.75;;;5.17;100.00
57068;BME280;43391;47.448;18.904;2024-01-30T11:53:25;101924.38;;;5.22;100.00
57068;BME280;43391;47.448;18.904;2024-01-30T11:55:50;101913.31;;;5.30;100.00
57068;BME280;43391;47.448;18.904;2024-01-30T11:58:16;101907.34;;;5.38;100.00
57068;BME280;43391;47.448;18.904;2024-01-30T12:00:41;101909.00;;;5.32;100.00
57068;BME280;43391;47.448;18.904;2024-01-30T12:03:07;101908.34;;;5.57;100.00
57068;BME280;43391;47.448;18.904;2024-01-30T12:05:32;101911.91;;;5.76;100.00
57068;BME280;43391;47.448;18.904;2024-01-30T12:07:57;101903.38;;;5.83;98.83
57068;BME280;43391;47.448;18.904;2024-01-30T12:10:23;101898.19;;;5.76;97.63
57068;BME280;43391;47.448;18.904;2024-01-30T12:12:49;101896.41;;;5.67;97.12
57068;BME280;43391;47.448;18.904;2024-01-30T12:15:15;101894.59;;;5.58;97.47
57068;BME280;43391;47.448;18.904;2024-01-30T12:17:40;101886.88;;;5.56;96.89
57068;BME280;43391;47.448;18.904;2024-01-30T12:20:06;101879.97;;;5.55;97.72
57068;BME280;43391;47.448;18.904;2024-01-30T12:22:33;101884.41;;;5.74;96.37
57068;BME280;43391;47.448;18.904;2024-01-30T12:25:01;101887.00;;;5.77;94.48
57068;BME280;43391;47.448;18.904;2024-01-30T12:27:26;101887.94;;;5.90;94.18